KAUS

Austin-Bergstrom International Airport

Austin, Texas, USA
METAR KAUS 260353Z 20006KT 10SM SCT100 BKN150 27/21 A2987 RMK AO2 SLP104 T02670206
Observed Flight Rules
May-26 @ 03:53 UTC (33 minutes ago) Visual Flight Rules
Wind Visibility Clouds
200° at 6 knots 10 miles
  • Scattered at 10,000' AGL
  • Broken at 15,000' AGL
Temperatures Readings
Current 27°C / 81°F
Dewpoint 21°C / 70°F
Humidity 70%
Altimeter 29.87" Hg
Pressure 1010.4 hPa
Elevation 166
METAR KAUS 260353Z 20006KT 10SM SCT100 BKN150 27/21 A2987 RMK AO2 SLP104 T02670206
Observed Flight Rules
May-26 @ 03:53 UTC
(33 minutes ago)
VFR
Wind Visibility
200° at 6 knots 10 miles
Clouds
  • Scattered at 10,000' AGL
  • Broken at 15,000' AGL
Temperature Dewpoint
27°C / 81°F 21°C / 70°F
Humidity Altimeter Pressure
70% 29.87" Hg 1010.4 hPa